x

Portlock Bank- 76nm Ene Of Kodiak, Ak (46080) Weather Station

3:50am - Mon 27th Apr 2015 All times are AKDT. -8 hours from GMT.

  • Wind
    18mph, 22mph gusts
  • Sea Temp 43°f
  • Air Temp 43°f
  • Sea Pressure 1001.7mb
  • Portlock Bank- 76nm Ene Of Kodiak, Ak
  • Portlock Bank- 76nm Ene Of Kodiak, Ak

More Historic Weather Station data

Upgrade to MSW Pro to gain access to the past 30 days of data for over 8000 Wavebouys and Weather Stations around the globe.

Join Pro

Comparision Forecast

View Surf forecast
   
Mon 04/27 3:50am  -   -   -  18 22 mph 1001.7mb 43f 43f
1:50am  -   -   -  16
mph
1001.5mb - 44f
12:50am  -   -   -  16 22 mph 1001.3mb 43f 44f
Sun 04/26 11:50pm  -   -   -  13 18 mph 1001mb 43f 44f
10:50pm 10ft 12s 7s 13 18 mph 1000.6mb 43f 44f
9:50pm  -   -   -  13 20 mph 1000.4mb 43f 45f
8:50pm 10ft 11s 7s 16 20 mph 1000.3mb 43f 45f
7:50pm  -   -   -  25 31 mph 999.7mb 43f 46f
6:50pm  -   -   -  22 29 mph 999.6mb 43f 45f
5:50pm  -   -   -  18 22 mph 999.4mb 43f 45f
4:50pm  -   -   -  18 25 mph 999.4mb 43f 46f
3:50pm  -   -   -  18 27 mph 999.3mb 43f 45f
2:50pm  -   -   -  20 25 mph 998.8mb 43f 44f
1:50pm 10ft 9s 7s 18 22 mph 998.9mb 43f 44f
12:50pm 8ft 9s 6s 16 22 mph 999.4mb 43f 46f
11:50am  -   -   -  20
mph
- - 45f
10:50am  -   -   -  25 29 mph 998.5mb 43f 44f
9:50am  -   -   -  20
mph
999.2mb 43f 43f
8:50am  -   -   -  13 16 mph 999.5mb 43f 46f
7:50am  -   -   -  16
mph
999.8mb - 46f
6:50am  -   -   -  18
mph
- - 45f
5:50am  -   -   -  18 22 mph 1000.3mb 43f 45f
4:50am  -   -   -  18 22 mph - 43f 46f
3:50am  -   -   -  18 20 mph 1001.2mb 43f 45f
2:50am  -   -   -  18 20 mph 1001.9mb 43f 45f
1:50am  -   -   -  18 22 mph 1002.3mb 43f 45f
12:50am  -   -   -  18
mph
- - -
Sat 04/25 11:50pm  -   -   -  18 20 mph 1003.2mb 43f 44f
10:50pm  -   -   -  13 16 mph 1003.9mb 43f 43f
9:50pm 5ft 7s 5s 13 16 mph 1004.4mb 43f 43f
8:50pm 6.5ft 7s 5s 18 20 mph 1004.8mb 43f 43f
7:50pm 6.5ft 7s 5s 22 25 mph 1004.9mb 43f 42f
6:50pm  -   -   -  25 29 mph 1005.2mb 43f 42f
5:50pm  -   -   -  29 36 mph 1005.2mb 43f 41f
4:50pm  -   -   -  29 34 mph 1005.4mb 43f 41f
3:50pm 8ft 7s 5s 29 34 mph - - 40f
2:50pm  -   -   -  29 36 mph 1005.9mb 43f 40f
1:50pm  -   -   -  27 34 mph 1006.2mb 43f 40f
12:50pm  -   -   -  25 31 mph 1006.4mb 43f 40f
11:50am  -   -   -  25 29 mph 1006.4mb 43f 41f
10:50am  -   -   -  18 20 mph 1006.4mb 43f 41f
9:50am 5ft 5s 5s 18 22 mph 1006.1mb 43f 42f
8:50am  -   -   -  20 25 mph 1005.7mb 43f 42f
7:50am 5ft 5s 5s 20 25 mph 1005.4mb 43f 43f
6:50am 5ft 5s 5s 16 20 mph 1005.6mb 43f 42f
5:50am  -   -   -  18 22 mph 1005.4mb 43f 43f
4:50am  -   -   -  18 20 mph 1005.4mb 43f 43f
3:50am  -   -   -  16 20 mph 1005.7mb 43f 43f
2:50am 5ft 7s 5s 16 18 mph 1005.9mb 43f 42f
1:50am  -   -   -  18 20 mph 1005.8mb 43f 42f
12:50am  -   -   -  18 20 mph 1005.6mb 44f 42f
Fri 04/24 11:50pm 5ft 6s 5s 18 22 mph 1005.4mb 44f 42f
10:50pm  -   -   -  20 22 mph 1005.2mb 43f 42f
9:50pm 6ft 5s 5s 22 27 mph 1005mb 44f 41f
8:50pm  -   -   -  20 25 mph 1004.9mb 44f 42f
7:50pm 5ft 8s 5s 18 22 mph 1004.9mb 44f 42f
6:50pm 5ft 9s 5s 18 22 mph 1005mb 44f 42f
5:50pm 4.5ft 9s 5s 20 22 mph 1005.2mb 44f 42f
4:50pm 5ft 9s 5s 16 18 mph 1005.6mb 44f 41f
3:50pm 4.5ft 9s 5s 16 18 mph 1005.7mb 44f 42f
2:50pm  -   -   -  18 22 mph 1006.1mb 44f 42f
1:50pm 4.5ft 10s 5s 13 18 mph 1006.4mb 44f 42f
12:50pm 3.5ft 10s 5s 16 18 mph 1006.5mb 44f 42f
11:50am  -   -   -  11 13 mph 1006.6mb 44f 40f
10:50am 4.5ft 10s 6s 11 13 mph 1006.6mb 43f 40f
9:50am 4.5ft 9s 6s 11 16 mph 1006.4mb 43f 40f
8:50am 5ft 8s 6s 11 13 mph 1006.3mb 43f 40f
7:50am 5ft 9s 6s 9 11 mph 1006.5mb 43f 40f
6:50am  -   -   -  9 11 mph 1006.7mb 43f 40f
5:50am 5.5ft 9s 6s 7 9 mph 1006.9mb 43f 40f
4:50am 6ft 8s 6s 7 9 mph 1007.3mb 43f 40f
3:50am 6.5ft 9s 6s 7
mph
1007.6mb 43f 40f
1:50am 6ft 10s 6s 16 18 mph 1008.2mb 43f 41f
12:50am 6.5ft 10s 7s 11 13 mph 1008.6mb 43f 42f
Thu 04/23 11:50pm 6.5ft 10s 7s 13 18 mph 1008.9mb 43f 42f
10:50pm  -   -   -  13 16 mph 1009mb 43f 42f
9:50pm  -   -   -  13 18 mph 1009.1mb 43f 42f
8:50pm  -   -   -  13
mph
1009.3mb - 42f
7:50pm 7ft 10s 7s 16 18 mph 1009.7mb 43f 42f
6:50pm  -   -   -  13 18 mph 1010.1mb 43f 42f
5:50pm 8.5ft 10s 7s 13
mph
1010.6mb 43f 42f
4:50pm 9.5ft 10s 7s 13 16 mph 1011.2mb 43f 42f
3:50pm 9.5ft 11s 7s 13 16 mph 1011.8mb 43f 42f
2:50pm 9ft 10s 7s 11 13 mph 1012.4mb 43f 42f
1:50pm 9.5ft 10s 8s 9 11 mph 1012.9mb 43f 42f